Monroe, NC

9:49 AM EST on December 19, 2014 (GMT -0500)
Charlotte-Douglas International | Change Station
CLOSE
Current Station
Airport
Location: Charlotte,
Elevation: 748 ft
Nearby Weather Stations

Elev 748 ft 35.22 °N, 80.95 °W | Updated 57 minutes ago

Clear
Clear
44 °F
Feels Like 41 °F
N
6
Wind Variable Wind from NNE

Today
High -- | Low -- °F
--% Chance of Precip.
Yesterday
High -- | Low -- °F
Precip. -- in
7:25 AM 5:13 PM
Waning Crescent, 7% visible
Pressure 30.17 in
Visibility 10.0 miles
Clouds Few 25000 ft
Windchill 41 °F
Dew Point 27 °F
Humidity 51%
Rainfall 0.00 in
Snow Depth Not available.
UV 1 out of 12
Pollen 1.10 out of 12
Air Quality Not available.
Flu Activity Not available.
METAR KCLT 191352Z 02005KT 10SM FEW250 07/M03 A3017 RMK AO2 SLP217 T00671028

More Conditions Fewer Conditions

Pressure 30.17 in
Visibility 10.0 miles
Clouds Few 25000 ft
Windchill 41 °F
Dew Point 27 °F
Humidity 51%
Rainfall 0.00 in
Snow Depth Not available.
UV 1 out of 12
Pollen 1.10 out of 12
Air Quality Not available.
Flu Activity Not available.
METAR KCLT 191352Z 02005KT 10SM FEW250 07/M03 A3017 RMK AO2 SLP217 T00671028

More Conditions Fewer Conditions

10-Day Weather Forecast

Almanac

Astronomy

Dec. 19, 2014 Rise Set
Actual Time
Civil Twilight
Nautical Twilight
Astronomical Twilight
Moon
Length of Visible Light
Length of Day
Tomorrow will be .
, % of the Moon is Illuminated

Today's Extremes

State Highs State Lows

Community

WunderPhotos

Upload Photos

1,778,988 photos uploaded!

WunderBlogs® & News

Nearby

Air Quality

  Air Quality AQ Index Pollutant
Not available.

Snow Depth

Station Depth Elevation

Earthquake Activity

City Distance Mag. Time & Date
Minimum magnitude displayed is 2.5.

Coastal Water Temperatures

Place Temperature

Nearby Weather Stations